createdAt,value
2022-08-27T00:00:48.699Z,94692.88
2022-08-27T00:03:16.548Z,94705.16
2022-08-27T00:05:44.229Z,94695.63
2022-08-27T00:08:13.185Z,94704.28
2022-08-27T00:10:41.028Z,94706.97
2022-08-27T00:13:08.392Z,94691.44
2022-08-27T00:15:35.375Z,94699.19
2022-08-27T00:18:02.636Z,94697.16
2022-08-27T00:20:29.620Z,94697.53
2022-08-27T00:22:56.511Z,94702.13
2022-08-27T00:25:23.748Z,94691.38
2022-08-27T00:27:51.495Z,94691.38
2022-08-27T00:30:21.407Z,94689.97
2022-08-27T00:32:48.937Z,94685.44
2022-08-27T00:35:16.237Z,94685.38
2022-08-27T00:37:44.352Z,94682.03
2022-08-27T00:40:16.004Z,94676.84
2022-08-27T00:42:45.883Z,94681.38
2022-08-27T00:45:16.104Z,94682.66
2022-08-27T00:47:48.508Z,94686.06
2022-08-27T00:50:24.790Z,94683.00
2022-08-27T00:52:56.088Z,94684.06
2022-08-27T00:55:29.983Z,94693.72
2022-08-27T00:58:06.939Z,94690.13
2022-08-27T01:00:35.093Z,94685.50
2022-08-27T01:03:01.828Z,94687.09
2022-08-27T01:05:28.778Z,94682.53
2022-08-27T01:08:02.113Z,94682.25
2022-08-27T01:10:30.463Z,94691.00
2022-08-27T01:12:57.871Z,94686.78
2022-08-27T01:15:28.544Z,94683.59
2022-08-27T01:17:57.267Z,94684.63
2022-08-27T01:20:30.639Z,94685.91
2022-08-27T01:23:25.479Z,94687.50
2022-08-27T01:25:52.540Z,94685.63
2022-08-27T01:28:23.619Z,94680.94
2022-08-27T01:30:56.082Z,94687.72
2022-08-27T01:33:23.737Z,94694.09
2022-08-27T01:35:52.225Z,94692.09
2022-08-27T01:38:30.884Z,94690.94
2022-08-27T01:41:00.420Z,94687.72
2022-08-27T01:43:29.319Z,94695.88
2022-08-27T01:45:56.153Z,94685.72
2022-08-27T01:48:23.236Z,94681.75
2022-08-27T01:50:50.752Z,94691.88
2022-08-27T01:53:21.012Z,94684.16
2022-08-27T01:55:49.677Z,94677.09
2022-08-27T01:58:18.690Z,94684.84
2022-08-27T02:00:54.211Z,94705.28
2022-08-27T02:03:24.048Z,94701.69
2022-08-27T02:05:51.847Z,94695.13
2022-08-27T02:08:19.556Z,94701.56
2022-08-27T02:10:48.573Z,94696.47
2022-08-27T02:13:16.779Z,94698.72
2022-08-27T02:15:44.414Z,94702.03
2022-08-27T02:18:12.159Z,94692.19
2022-08-27T02:20:39.628Z,94697.88
2022-08-27T02:23:06.638Z,94706.78
2022-08-27T02:25:34.097Z,94701.97
2022-08-27T02:28:01.850Z,94702.81
2022-08-27T02:30:32.050Z,94699.25
2022-08-27T02:33:02.915Z,94702.66
2022-08-27T02:35:32.422Z,94709.41
2022-08-27T02:37:59.937Z,94712.31
2022-08-27T02:40:27.012Z,94709.28
2022-08-27T02:42:53.807Z,94713.63
2022-08-27T02:45:20.979Z,94710.97
2022-08-27T02:47:48.634Z,94727.03
2022-08-27T02:50:16.430Z,94713.78
2022-08-27T02:52:46.247Z,94720.31
2022-08-27T02:55:17.214Z,94716.56
2022-08-27T02:57:45.145Z,94722.16
2022-08-27T03:00:14.946Z,94722.94
2022-08-27T03:02:41.794Z,94715.16
2022-08-27T03:05:09.497Z,94715.34
2022-08-27T03:07:37.330Z,94727.25
2022-08-27T03:10:05.575Z,94728.91
2022-08-27T03:12:34.303Z,94726.97
2022-08-27T03:15:01.191Z,94725.25
2022-08-27T03:17:46.816Z,94728.34
2022-08-27T03:20:13.762Z,94728.47
2022-08-27T03:22:40.815Z,94737.97
2022-08-27T03:25:08.983Z,94728.81
2022-08-27T03:27:35.792Z,94743.69
2022-08-27T03:30:05.728Z,94736.94
2022-08-27T03:32:32.947Z,94731.84
2022-08-27T03:35:00.053Z,94738.47
2022-08-27T03:37:26.903Z,94737.72
2022-08-27T03:39:55.001Z,94745.59
2022-08-27T03:42:22.108Z,94752.47
2022-08-27T03:44:49.506Z,94749.81
2022-08-27T03:47:16.752Z,94751.97
2022-08-27T03:49:43.714Z,94746.97
2022-08-27T03:52:10.808Z,94748.16
2022-08-27T03:54:38.589Z,94749.47
2022-08-27T03:57:06.122Z,94752.25
2022-08-27T03:59:33.495Z,94749.13
2022-08-27T04:02:02.431Z,94760.09
2022-08-27T04:04:30.005Z,94751.44
2022-08-27T04:06:59.132Z,94761.63
2022-08-27T04:09:26.503Z,94748.06
2022-08-27T04:11:53.678Z,94758.00
2022-08-27T04:14:26.893Z,94761.47
2022-08-27T04:16:56.564Z,94764.72
2022-08-27T04:19:28.530Z,94766.88
2022-08-27T04:22:00.821Z,94764.03
2022-08-27T04:24:29.037Z,94765.31
2022-08-27T04:26:55.805Z,94767.41
2022-08-27T04:29:22.927Z,94767.53
2022-08-27T04:31:49.879Z,94768.28
2022-08-27T04:34:17.781Z,94773.03
2022-08-27T04:36:46.139Z,94779.22
2022-08-27T04:39:14.135Z,94763.66
2022-08-27T04:41:41.614Z,94766.28
2022-08-27T04:44:10.522Z,94761.63
2022-08-27T04:46:39.750Z,94767.66
2022-08-27T04:49:10.915Z,94769.34
2022-08-27T04:51:40.151Z,94772.31
2022-08-27T04:54:08.657Z,94776.84
2022-08-27T04:56:37.198Z,94779.09
2022-08-27T04:59:06.853Z,94785.81
2022-08-27T05:01:33.945Z,94784.53
2022-08-27T05:04:00.859Z,94783.47
2022-08-27T05:06:28.008Z,94782.91
2022-08-27T05:08:55.863Z,94777.09
2022-08-27T05:11:27.371Z,94781.34
2022-08-27T05:13:54.416Z,94785.09
2022-08-27T05:16:23.140Z,94788.66
2022-08-27T05:18:51.762Z,94799.25
2022-08-27T05:21:27.876Z,94791.28
2022-08-27T05:23:56.751Z,94781.34
2022-08-27T05:26:23.817Z,94784.13
2022-08-27T05:28:50.699Z,94784.91
2022-08-27T05:31:19.744Z,94793.78
2022-08-27T05:33:47.120Z,94789.75
2022-08-27T05:36:28.153Z,94784.78
2022-08-27T05:38:56.208Z,94779.44
2022-08-27T05:41:33.851Z,94787.31
2022-08-27T05:44:36.846Z,94789.91
2022-08-27T05:46:56.417Z,94800.63
2022-08-27T05:49:23.112Z,94801.31
2022-08-27T05:51:49.908Z,94777.59
2022-08-27T05:54:21.164Z,94801.25
2022-08-27T05:56:50.223Z,94795.13
2022-08-27T05:59:56.502Z,94790.38
2022-08-27T06:02:23.397Z,94803.06
2022-08-27T06:04:50.383Z,94791.03
2022-08-27T06:07:17.269Z,94796.22
2022-08-27T06:09:44.079Z,94794.88
2022-08-27T06:12:10.916Z,94798.69
2022-08-27T06:14:38.822Z,94798.47
2022-08-27T06:17:06.442Z,94806.03
2022-08-27T06:19:34.831Z,94795.91
2022-08-27T06:22:09.934Z,94807.06
2022-08-27T06:24:40.690Z,94797.59
2022-08-27T06:27:11.923Z,94801.25
2022-08-27T06:29:39.850Z,94808.75
2022-08-27T06:32:07.095Z,94721.53
2022-08-27T06:34:34.153Z,94808.22
2022-08-27T06:37:00.892Z,94804.25
2022-08-27T06:39:28.061Z,94809.50
2022-08-27T06:41:58.597Z,94790.16
2022-08-27T06:44:25.744Z,94806.06
2022-08-27T06:46:53.903Z,94812.34
2022-08-27T06:49:21.274Z,94803.56
2022-08-27T06:51:48.160Z,94801.53
2022-08-27T06:54:16.780Z,94799.25
2022-08-27T06:56:44.655Z,94796.81
2022-08-27T06:59:15.012Z,94795.53
2022-08-27T07:01:44.102Z,94798.97
2022-08-27T07:04:14.198Z,94799.66
2022-08-27T07:06:41.843Z,94791.22
2022-08-27T07:09:10.650Z,94797.53
2022-08-27T07:11:38.314Z,94799.69
2022-08-27T07:14:06.330Z,94795.56
2022-08-27T07:16:33.899Z,94791.63
2022-08-27T07:19:05.427Z,94783.34
2022-08-27T07:21:34.034Z,94788.84
2022-08-27T07:24:04.968Z,94781.41
2022-08-27T07:26:38.120Z,94786.38
2022-08-27T07:29:07.307Z,94797.59
2022-08-27T07:31:35.782Z,94785.91
2022-08-27T07:34:04.908Z,94801.16
2022-08-27T07:36:33.599Z,94795.63
2022-08-27T07:39:01.624Z,94793.16
2022-08-27T07:41:31.396Z,94789.09
2022-08-27T07:44:19.080Z,94788.44
2022-08-27T07:46:48.227Z,94786.19
2022-08-27T07:49:19.414Z,94795.09
2022-08-27T07:51:47.045Z,94798.84
2022-08-27T07:54:15.553Z,94802.13
2022-08-27T07:56:44.305Z,94795.59
2022-08-27T07:59:27.331Z,94791.72
2022-08-27T08:01:56.113Z,94791.53
2022-08-27T08:04:23.813Z,94796.53
2022-08-27T08:06:51.441Z,94794.25
2022-08-27T08:09:18.632Z,94793.06
2022-08-27T08:11:45.535Z,94788.50
2022-08-27T08:14:12.338Z,94790.72
2022-08-27T08:16:39.335Z,94786.88
2022-08-27T08:19:07.165Z,94788.06
2022-08-27T08:21:34.358Z,94774.78
2022-08-27T08:24:02.458Z,94783.91
2022-08-27T08:26:29.267Z,94775.81
2022-08-27T08:28:56.334Z,94775.13
2022-08-27T08:31:27.435Z,94773.22
2022-08-27T08:33:54.884Z,94771.31
2022-08-27T08:36:22.189Z,94775.09
2022-08-27T08:38:50.547Z,94770.84
2022-08-27T08:41:31.893Z,94771.22
2022-08-27T08:44:05.728Z,94777.06
2022-08-27T08:46:58.768Z,94778.63
2022-08-27T08:50:19.725Z,94777.88
2022-08-27T08:53:02.324Z,94777.84
2022-08-27T08:55:35.254Z,94773.97
2022-08-27T08:58:08.809Z,94770.06
2022-08-27T09:00:39.675Z,94765.38
2022-08-27T09:03:07.540Z,94755.34
2022-08-27T09:05:38.966Z,94756.34
2022-08-27T09:08:33.109Z,94764.56
2022-08-27T09:11:20.660Z,94762.88
2022-08-27T09:13:55.601Z,94753.66
2022-08-27T09:16:23.155Z,94755.75
2022-08-27T09:18:52.420Z,94755.38
2022-08-27T09:21:45.042Z,94753.72
2022-08-27T09:24:30.547Z,94755.81
2022-08-27T09:26:57.627Z,94747.25
2022-08-27T09:29:28.654Z,94747.72
2022-08-27T09:32:08.721Z,94748.78
2022-08-27T09:34:39.004Z,94746.25
2022-08-27T09:37:20.501Z,94747.97
2022-08-27T09:39:48.195Z,94744.94
2022-08-27T09:42:23.644Z,94732.34
2022-08-27T09:44:53.556Z,94741.09
2022-08-27T09:47:20.582Z,94738.38
2022-08-27T09:49:47.761Z,94721.19
2022-08-27T09:52:45.139Z,94738.88
2022-08-27T09:55:12.010Z,94743.97
2022-08-27T09:57:41.886Z,94737.66
2022-08-27T10:00:15.787Z,94743.34
2022-08-27T10:02:52.800Z,94746.19
2022-08-27T10:05:31.089Z,94738.13
2022-08-27T10:08:25.866Z,94733.94
2022-08-27T10:10:55.133Z,94728.78
2022-08-27T10:13:57.968Z,94727.94
2022-08-27T10:16:59.432Z,94722.13
2022-08-27T10:19:48.197Z,94731.97
2022-08-27T10:22:15.015Z,94727.88
2022-08-27T10:24:59.627Z,94724.97
2022-08-27T10:27:32.615Z,94730.81
2022-08-27T10:30:32.858Z,94725.69
2022-08-27T10:33:12.496Z,94725.56
2022-08-27T10:35:53.735Z,94719.75
2022-08-27T10:38:42.393Z,94730.38
2022-08-27T10:41:37.652Z,94725.38
2022-08-27T10:44:32.338Z,94725.38
2022-08-27T10:47:24.357Z,94706.56
2022-08-27T10:50:27.367Z,94727.06
2022-08-27T10:53:11.679Z,94733.00
2022-08-27T10:55:45.931Z,94724.44
2022-08-27T10:58:15.735Z,94721.59
2022-08-27T11:00:55.508Z,94718.19
2022-08-27T11:03:39.659Z,94726.50
2022-08-27T11:06:57.601Z,94721.81
2022-08-27T11:09:35.076Z,94723.09
2022-08-27T11:12:15.052Z,94711.59
2022-08-27T11:14:56.443Z,94718.75
2022-08-27T11:17:50.567Z,94715.13
2022-08-27T11:20:46.636Z,94711.53
2022-08-27T11:23:19.421Z,94706.44
2022-08-27T11:25:57.452Z,94704.84
2022-08-27T11:28:51.631Z,94706.25
2022-08-27T11:31:36.672Z,94701.13
2022-08-27T11:34:33.365Z,94691.59
2022-08-27T11:37:07.729Z,94684.97
2022-08-27T11:39:52.695Z,94693.72
2022-08-27T11:42:45.632Z,94686.81
2022-08-27T11:45:28.581Z,94676.22
2022-08-27T11:48:01.147Z,94688.84
2022-08-27T11:50:31.211Z,94675.13
2022-08-27T11:53:03.824Z,94679.88
2022-08-27T11:55:36.955Z,94684.28
2022-08-27T11:58:08.437Z,94672.63
2022-08-27T12:00:42.218Z,94676.13
2022-08-27T12:03:23.611Z,94672.13
2022-08-27T12:05:53.494Z,94671.53
2022-08-27T12:08:22.977Z,94662.31
2022-08-27T12:11:30.936Z,94659.25
2022-08-27T12:14:48.478Z,94655.91
2022-08-27T12:17:40.480Z,94642.56
2022-08-27T12:20:26.779Z,94655.28
2022-08-27T12:23:40.940Z,94656.66
2022-08-27T12:26:36.510Z,94646.91
2022-08-27T12:29:43.975Z,94642.38
2022-08-27T12:32:16.972Z,94650.13
2022-08-27T12:34:49.668Z,94640.22
2022-08-27T12:37:25.521Z,94653.50
2022-08-27T12:39:55.198Z,94639.66
2022-08-27T12:42:22.823Z,94635.31
2022-08-27T12:44:57.459Z,94641.88
2022-08-27T12:47:24.885Z,94630.03
2022-08-27T12:49:55.822Z,94646.41
2022-08-27T12:52:41.151Z,94634.53
2022-08-27T12:55:31.101Z,94638.59
2022-08-27T12:58:06.143Z,94638.16
2022-08-27T13:01:16.784Z,94632.81
2022-08-27T13:03:50.621Z,94634.72
2022-08-27T13:06:20.648Z,94640.53
2022-08-27T13:08:54.783Z,94633.78
2022-08-27T13:11:25.527Z,94635.78
2022-08-27T13:14:03.657Z,94635.44
2022-08-27T13:16:31.865Z,94639.66
2022-08-27T13:18:58.743Z,94640.75
2022-08-27T13:21:29.075Z,94629.69
2022-08-27T13:24:04.260Z,94629.00
2022-08-27T13:26:34.334Z,94624.13
2022-08-27T13:29:03.803Z,94619.06
2022-08-27T13:31:32.037Z,94611.75
2022-08-27T13:33:59.694Z,94620.47
2022-08-27T13:36:32.538Z,94619.38
2022-08-27T13:39:03.411Z,94615.88
2022-08-27T13:41:35.209Z,94615.22
2022-08-27T13:44:12.252Z,94612.84
2022-08-27T13:47:00.844Z,94611.44
2022-08-27T13:49:31.792Z,94611.38
2022-08-27T13:52:28.069Z,94614.00
2022-08-27T13:55:07.943Z,94610.03
2022-08-27T13:57:46.106Z,94607.16
2022-08-27T14:00:23.827Z,94612.88
2022-08-27T14:02:55.911Z,94610.97
2022-08-27T14:05:23.448Z,94606.03
2022-08-27T14:07:58.294Z,94608.44
2022-08-27T14:10:37.628Z,94611.31
2022-08-27T14:13:24.594Z,94615.28
2022-08-27T14:15:59.770Z,94609.63
2022-08-27T14:18:55.135Z,94613.31
2022-08-27T14:21:18.364Z,94598.06
2022-08-27T14:23:45.198Z,94618.47
2022-08-27T14:26:13.865Z,94616.13
2022-08-27T14:28:40.796Z,94620.41
2022-08-27T14:31:07.655Z,94629.97
2022-08-27T14:33:34.688Z,94627.16
2022-08-27T14:36:01.960Z,94629.69
2022-08-27T14:38:31.630Z,94621.38
2022-08-27T14:40:58.787Z,94625.50
2022-08-27T14:43:25.878Z,94613.72
2022-08-27T14:45:53.877Z,94618.63
2022-08-27T14:48:33.612Z,94625.44
2022-08-27T14:51:07.124Z,94622.97
2022-08-27T14:53:34.417Z,94624.38
2022-08-27T14:56:01.854Z,94618.47
2022-08-27T14:58:29.437Z,94624.84
2022-08-27T15:00:57.860Z,94617.66
2022-08-27T15:03:25.647Z,94597.50
2022-08-27T15:05:54.947Z,94613.56
2022-08-27T15:08:27.682Z,94614.31
2022-08-27T15:10:58.048Z,94610.81
2022-08-27T15:13:25.134Z,94619.66
2022-08-27T15:15:52.414Z,94614.94
2022-08-27T15:18:19.831Z,94622.38
2022-08-27T15:20:46.904Z,94618.16
2022-08-27T15:23:15.655Z,94616.06
2022-08-27T15:25:44.898Z,94610.59
2022-08-27T15:28:12.113Z,94609.75
2022-08-27T15:30:39.075Z,94618.56
2022-08-27T15:33:07.466Z,94608.44
2022-08-27T15:35:34.756Z,94618.28
2022-08-27T15:38:02.006Z,94615.56
2022-08-27T15:40:33.171Z,94608.84
2022-08-27T15:43:03.679Z,94605.91
2022-08-27T15:45:32.311Z,94607.47
2022-08-27T15:48:00.222Z,94608.81
2022-08-27T15:50:28.737Z,94613.53
2022-08-27T15:53:00.222Z,94600.03
2022-08-27T15:55:31.558Z,94610.22
2022-08-27T15:57:59.943Z,94608.56
2022-08-27T16:00:28.300Z,94618.13
2022-08-27T16:02:56.252Z,94614.41
2022-08-27T16:05:23.219Z,94618.13
2022-08-27T16:07:50.017Z,94617.78
2022-08-27T16:10:17.055Z,94621.88
2022-08-27T16:12:44.479Z,94619.06
2022-08-27T16:15:12.294Z,94620.47
2022-08-27T16:17:40.207Z,94622.59
2022-08-27T16:20:09.001Z,94626.38
2022-08-27T16:22:36.808Z,94624.78
2022-08-27T16:25:06.811Z,94632.59
2022-08-27T16:27:33.860Z,94638.22
2022-08-27T16:30:01.293Z,94629.88
2022-08-27T16:32:31.456Z,94632.19
2022-08-27T16:34:58.535Z,94645.75
2022-08-27T16:37:25.660Z,94656.22
2022-08-27T16:39:52.903Z,94660.53
2022-08-27T16:42:19.971Z,94657.53
2022-08-27T16:44:46.816Z,94657.09
2022-08-27T16:47:13.655Z,94660.19
2022-08-27T16:49:58.803Z,94663.97
2022-08-27T16:52:26.797Z,94657.69
2022-08-27T16:54:54.579Z,94661.78
2022-08-27T16:57:21.587Z,94657.38
2022-08-27T16:59:48.458Z,94670.91
2022-08-27T17:02:42.079Z,94675.09
2022-08-27T17:05:33.472Z,94668.53
2022-08-27T17:07:56.226Z,94683.53
2022-08-27T17:10:24.501Z,94677.41
2022-08-27T17:12:51.589Z,94692.81
2022-08-27T17:15:18.791Z,94691.00
2022-08-27T17:17:46.309Z,94694.81
2022-08-27T17:20:15.297Z,94695.47
2022-08-27T17:22:42.651Z,94688.13
2022-08-27T17:25:11.246Z,94695.91
2022-08-27T17:27:38.428Z,94695.69
2022-08-27T17:30:07.010Z,94712.13
2022-08-27T17:32:37.852Z,94719.63
2022-08-27T17:35:07.117Z,94728.09
2022-08-27T17:37:35.446Z,94729.59
2022-08-27T17:40:04.949Z,94725.25
2022-08-27T17:42:32.072Z,94727.66
2022-08-27T17:45:00.059Z,94725.25
2022-08-27T17:47:27.893Z,94742.31
2022-08-27T17:49:54.668Z,94733.28
2022-08-27T17:52:22.466Z,94737.00
2022-08-27T17:54:56.226Z,94738.22
2022-08-27T17:57:26.543Z,94745.78
2022-08-27T17:59:54.947Z,94745.38
2022-08-27T18:02:36.742Z,94739.94
2022-08-27T18:05:05.751Z,94743.06
2022-08-27T18:07:36.703Z,94750.09
2022-08-27T18:10:06.855Z,94749.00
2022-08-27T18:12:33.927Z,94746.94
2022-08-27T18:15:09.810Z,94753.38
2022-08-27T18:17:42.573Z,94749.38
2022-08-27T18:20:13.232Z,94759.19
2022-08-27T18:22:40.843Z,94760.22
2022-08-27T18:25:09.732Z,94757.75
2022-08-27T18:27:37.926Z,94767.66
2022-08-27T18:30:05.970Z,94772.72
2022-08-27T18:32:32.759Z,94761.19
2022-08-27T18:35:03.373Z,94755.19
2022-08-27T18:37:30.372Z,94760.16
2022-08-27T18:39:57.202Z,94767.06
2022-08-27T18:42:24.243Z,94776.59
2022-08-27T18:44:51.097Z,94777.34
2022-08-27T18:47:17.935Z,94772.59
2022-08-27T18:49:44.699Z,94776.59
2022-08-27T18:52:13.521Z,94779.63
2022-08-27T18:54:42.883Z,94775.34
2022-08-27T18:57:09.634Z,94781.59
2022-08-27T18:59:36.425Z,94794.75
2022-08-27T19:02:04.045Z,94802.91
2022-08-27T19:04:33.535Z,94794.72
2022-08-27T19:07:00.375Z,94802.47
2022-08-27T19:09:27.220Z,94802.50
2022-08-27T19:11:53.939Z,94813.06
2022-08-27T19:14:21.047Z,94817.69
2022-08-27T19:16:53.540Z,94821.19
2022-08-27T19:19:20.436Z,94819.63
2022-08-27T19:21:51.453Z,94811.06
2022-08-27T19:24:21.694Z,94814.22
2022-08-27T19:26:50.028Z,94821.09
2022-08-27T19:29:17.342Z,94821.91
2022-08-27T19:31:46.587Z,94828.53
2022-08-27T19:34:13.511Z,94824.28
2022-08-27T19:36:43.012Z,94835.88
2022-08-27T19:39:12.721Z,94838.53
2022-08-27T19:41:40.504Z,94840.50
2022-08-27T19:44:07.661Z,94840.88
2022-08-27T19:46:36.705Z,94838.97
2022-08-27T19:49:04.623Z,94820.75
2022-08-27T19:51:31.850Z,94839.69
2022-08-27T19:53:58.736Z,94845.84
2022-08-27T19:56:25.699Z,94845.84
2022-08-27T19:58:56.658Z,94846.28
2022-08-27T20:01:24.725Z,94846.66
2022-08-27T20:03:51.640Z,94849.00
2022-08-27T20:06:19.169Z,94853.28
2022-08-27T20:08:49.898Z,94861.38
2022-08-27T20:11:18.151Z,94858.19
2022-08-27T20:13:50.794Z,94849.69
2022-08-27T20:16:17.924Z,94852.78
2022-08-27T20:19:04.714Z,94858.22
2022-08-27T20:21:31.837Z,94848.78
2022-08-27T20:23:58.662Z,94846.34
2022-08-27T20:26:26.782Z,94844.13
2022-08-27T20:28:54.540Z,94851.19
2022-08-27T20:31:21.652Z,94838.84
2022-08-27T20:33:48.987Z,94848.50
2022-08-27T20:36:15.926Z,94854.69
2022-08-27T20:38:43.768Z,94853.50
2022-08-27T20:41:10.604Z,94851.16
2022-08-27T20:43:37.609Z,94856.41
2022-08-27T20:46:05.030Z,94854.91
2022-08-27T20:48:32.884Z,94853.72
2022-08-27T20:50:59.832Z,94857.25
2022-08-27T20:53:29.822Z,94853.88
2022-08-27T20:55:56.766Z,94864.44
2022-08-27T20:58:43.537Z,94863.25
2022-08-27T21:01:11.029Z,94858.91
2022-08-27T21:03:37.976Z,94865.66
2022-08-27T21:06:06.187Z,94851.59
2022-08-27T21:08:33.099Z,94862.41
2022-08-27T21:11:01.108Z,94875.25
2022-08-27T21:13:29.236Z,94870.69
2022-08-27T21:15:56.690Z,94863.47
2022-08-27T21:18:29.627Z,94861.13
2022-08-27T21:20:59.924Z,94871.28
2022-08-27T21:23:28.961Z,94867.69
2022-08-27T21:26:01.732Z,94871.59
2022-08-27T21:28:29.334Z,94864.25
2022-08-27T21:30:57.082Z,94876.97
2022-08-27T21:33:24.111Z,94870.84
2022-08-27T21:35:50.831Z,94873.94
2022-08-27T21:38:17.941Z,94865.94
2022-08-27T21:40:44.952Z,94872.19
2022-08-27T21:43:11.799Z,94882.59
2022-08-27T21:45:39.396Z,94881.34
2022-08-27T21:48:06.390Z,94887.88
2022-08-27T21:50:33.260Z,94884.13
2022-08-27T21:53:00.185Z,94882.13
2022-08-27T21:55:27.021Z,94877.75
2022-08-27T21:57:54.022Z,94885.16
2022-08-27T22:00:28.286Z,94892.59
2022-08-27T22:02:56.289Z,94885.41
2022-08-27T22:05:23.431Z,94892.31
2022-08-27T22:07:50.327Z,94887.56
2022-08-27T22:10:17.348Z,94863.97
2022-08-27T22:12:44.115Z,94887.00
2022-08-27T22:15:10.927Z,94879.97
2022-08-27T22:17:37.887Z,94880.78
2022-08-27T22:20:07.595Z,94882.75
2022-08-27T22:22:34.437Z,94877.34
2022-08-27T22:25:01.601Z,94859.53
2022-08-27T22:27:28.396Z,94878.13
2022-08-27T22:29:55.126Z,94871.34
2022-08-27T22:32:22.135Z,94877.47
2022-08-27T22:34:48.906Z,94879.19
2022-08-27T22:37:16.038Z,94875.22
2022-08-27T22:39:42.783Z,94879.31
2022-08-27T22:42:09.766Z,94870.59
2022-08-27T22:44:40.627Z,94876.66
2022-08-27T22:47:07.644Z,94874.91
2022-08-27T22:49:34.336Z,94888.88
2022-08-27T22:52:01.232Z,94889.28
2022-08-27T22:54:28.031Z,94890.13
2022-08-27T22:56:54.942Z,94890.94
2022-08-27T22:59:21.755Z,94888.75
2022-08-27T23:01:48.564Z,94887.34
2022-08-27T23:04:15.819Z,94896.47
2022-08-27T23:06:42.735Z,94898.72
2022-08-27T23:09:09.681Z,94907.22
2022-08-27T23:11:36.420Z,94897.16
2022-08-27T23:14:03.328Z,94890.94
2022-08-27T23:16:31.838Z,94897.34
2022-08-27T23:18:58.659Z,94896.47
2022-08-27T23:21:25.701Z,94896.88
2022-08-27T23:23:52.614Z,94897.78
2022-08-27T23:26:37.918Z,94897.03
2022-08-27T23:29:05.372Z,94889.38
2022-08-27T23:31:32.223Z,94900.16
2022-08-27T23:33:59.772Z,94892.34
2022-08-27T23:36:26.632Z,94893.19
2022-08-27T23:38:53.443Z,94897.44
2022-08-27T23:41:20.735Z,94902.94
2022-08-27T23:43:47.515Z,94900.19
2022-08-27T23:46:15.208Z,94898.28
2022-08-27T23:48:41.999Z,94901.94
2022-08-27T23:51:09.681Z,94897.56
2022-08-27T23:53:39.370Z,94891.13
2022-08-27T23:56:06.571Z,94888.50
2022-08-27T23:58:33.892Z,94892.72
